sensor_id;sensor_type;location;lat;lon;timestamp;temperature;humidity
12384;DHT22;6256;63.808;20.336;2023-12-07T00:01:20;-6.00;99.90
12384;DHT22;6256;63.808;20.336;2023-12-07T00:03:46;-6.10;99.90
12384;DHT22;6256;63.808;20.336;2023-12-07T00:06:12;-6.10;99.90
12384;DHT22;6256;63.808;20.336;2023-12-07T00:08:40;-6.00;99.90
12384;DHT22;6256;63.808;20.336;2023-12-07T00:11:05;-6.00;99.90
12384;DHT22;6256;63.808;20.336;2023-12-07T00:13:31;-6.00;99.90
12384;DHT22;6256;63.808;20.336;2023-12-07T00:15:57;-6.00;99.90
12384;DHT22;6256;63.808;20.336;2023-12-07T00:18:22;-5.90;99.90
12384;DHT22;6256;63.808;20.336;2023-12-07T00:20:48;-5.90;99.90
12384;DHT22;6256;63.808;20.336;2023-12-07T00:23:14;-5.90;99.90
12384;DHT22;6256;63.808;20.336;2023-12-07T00:25:39;-5.90;99.90
12384;DHT22;6256;63.808;20.336;2023-12-07T00:28:05;-5.90;99.90
12384;DHT22;6256;63.808;20.336;2023-12-07T00:30:31;-5.90;99.90
12384;DHT22;6256;63.808;20.336;2023-12-07T00:32:57;-5.90;99.90
12384;DHT22;6256;63.808;20.336;2023-12-07T00:35:23;-5.90;99.90
12384;DHT22;6256;63.808;20.336;2023-12-07T00:37:48;-5.90;99.90
12384;DHT22;6256;63.808;20.336;2023-12-07T00:40:14;-5.90;99.90
12384;DHT22;6256;63.808;20.336;2023-12-07T00:42:40;-5.90;99.90
12384;DHT22;6256;63.808;20.336;2023-12-07T00:45:06;-5.80;99.90
12384;DHT22;6256;63.808;20.336;2023-12-07T00:47:32;-5.80;99.90
12384;DHT22;6256;63.808;20.336;2023-12-07T00:49:57;-5.80;99.90
12384;DHT22;6256;63.808;20.336;2023-12-07T00:52:23;-5.80;99.90
12384;DHT22;6256;63.808;20.336;2023-12-07T00:54:49;-5.90;99.90
12384;DHT22;6256;63.808;20.336;2023-12-07T00:57:15;-6.00;99.90
12384;DHT22;6256;63.808;20.336;2023-12-07T00:59:40;-6.00;99.90
12384;DHT22;6256;63.808;20.336;2023-12-07T01:02:06;-5.90;99.90
12384;DHT22;6256;63.808;20.336;2023-12-07T01:04:32;-6.00;99.90
12384;DHT22;6256;63.808;20.336;2023-12-07T01:06:58;-6.00;99.90
12384;DHT22;6256;63.808;20.336;2023-12-07T01:09:25;-5.90;99.90
12384;DHT22;6256;63.808;20.336;2023-12-07T01:11:51;-5.90;99.90
12384;DHT22;6256;63.808;20.336;2023-12-07T01:14:17;-5.90;99.90
12384;DHT22;6256;63.808;20.336;2023-12-07T01:16:43;-5.90;99.90
12384;DHT22;6256;63.808;20.336;2023-12-07T01:19:09;-5.90;99.90
12384;DHT22;6256;63.808;20.336;2023-12-07T01:21:36;-5.80;99.90
12384;DHT22;6256;63.808;20.336;2023-12-07T01:24:01;-5.80;99.90
12384;DHT22;6256;63.808;20.336;2023-12-07T01:26:27;-5.70;99.90
12384;DHT22;6256;63.808;20.336;2023-12-07T01:28:53;-5.70;99.90
12384;DHT22;6256;63.808;20.336;2023-12-07T01:31:19;-5.70;99.90
12384;DHT22;6256;63.808;20.336;2023-12-07T01:33:47;-5.70;99.90
12384;DHT22;6256;63.808;20.336;2023-12-07T01:36:13;-5.70;99.90
12384;DHT22;6256;63.808;20.336;2023-12-07T01:38:39;-5.70;99.90
12384;DHT22;6256;63.808;20.336;2023-12-07T01:41:05;-5.80;99.90
12384;DHT22;6256;63.808;20.336;2023-12-07T01:43:30;-5.80;99.90
12384;DHT22;6256;63.808;20.336;2023-12-07T01:45:59;-5.80;99.90
12384;DHT22;6256;63.808;20.336;2023-12-07T01:48:26;-5.70;99.90
12384;DHT22;6256;63.808;20.336;2023-12-07T01:50:57;-5.80;99.90
12384;DHT22;6256;63.808;20.336;2023-12-07T01:53:24;-5.70;99.90
12384;DHT22;6256;63.808;20.336;2023-12-07T01:55:52;-5.60;99.90
12384;DHT22;6256;63.808;20.336;2023-12-07T01:58:18;-5.70;99.90
12384;DHT22;6256;63.808;20.336;2023-12-07T02:00:45;-5.70;99.90
12384;DHT22;6256;63.808;20.336;2023-12-07T02:03:11;-5.60;99.90
12384;DHT22;6256;63.808;20.336;2023-12-07T02:05:40;-5.60;99.90
12384;DHT22;6256;63.808;20.336;2023-12-07T02:08:06;-5.60;99.90
12384;DHT22;6256;63.808;20.336;2023-12-07T02:10:32;-5.60;99.90
12384;DHT22;6256;63.808;20.336;2023-12-07T02:12:57;-5.60;99.90
12384;DHT22;6256;63.808;20.336;2023-12-07T02:15:23;-5.60;99.90
12384;DHT22;6256;63.808;20.336;2023-12-07T02:23:35;-5.60;99.90
12384;DHT22;6256;63.808;20.336;2023-12-07T02:26:03;-5.50;99.90
12384;DHT22;6256;63.808;20.336;2023-12-07T02:28:30;-5.50;99.90
12384;DHT22;6256;63.808;20.336;2023-12-07T02:30:56;-5.50;99.90
12384;DHT22;6256;63.808;20.336;2023-12-07T02:33:22;-5.40;99.90
12384;DHT22;6256;63.808;20.336;2023-12-07T02:35:47;-5.40;99.90
12384;DHT22;6256;63.808;20.336;2023-12-07T02:38:13;-5.40;99.90
12384;DHT22;6256;63.808;20.336;2023-12-07T02:40:40;-5.40;99.90
12384;DHT22;6256;63.808;20.336;2023-12-07T02:43:08;-5.30;99.90
12384;DHT22;6256;63.808;20.336;2023-12-07T02:45:34;-5.40;99.90
12384;DHT22;6256;63.808;20.336;2023-12-07T02:48:00;-5.30;99.90
12384;DHT22;6256;63.808;20.336;2023-12-07T02:50:25;-5.30;99.90
12384;DHT22;6256;63.808;20.336;2023-12-07T02:52:51;-5.30;99.90
12384;DHT22;6256;63.808;20.336;2023-12-07T02:55:17;-5.30;99.90
12384;DHT22;6256;63.808;20.336;2023-12-07T02:57:43;-5.30;99.90
12384;DHT22;6256;63.808;20.336;2023-12-07T03:00:09;-5.20;99.90
12384;DHT22;6256;63.808;20.336;2023-12-07T03:02:36;-5.20;99.90
12384;DHT22;6256;63.808;20.336;2023-12-07T03:05:02;-5.20;99.90
12384;DHT22;6256;63.808;20.336;2023-12-07T03:07:29;-5.20;99.90
12384;DHT22;6256;63.808;20.336;2023-12-07T03:09:55;-5.20;99.90
12384;DHT22;6256;63.808;20.336;2023-12-07T03:12:20;-5.20;99.90
12384;DHT22;6256;63.808;20.336;2023-12-07T03:14:46;-5.20;99.90
12384;DHT22;6256;63.808;20.336;2023-12-07T03:17:11;-5.20;99.90
12384;DHT22;6256;63.808;20.336;2023-12-07T03:19:39;-5.20;99.90
12384;DHT22;6256;63.808;20.336;2023-12-07T03:22:05;-5.20;99.90
12384;DHT22;6256;63.808;20.336;2023-12-07T03:24:32;-5.20;99.90
12384;DHT22;6256;63.808;20.336;2023-12-07T03:26:58;-5.10;99.90
12384;DHT22;6256;63.808;20.336;2023-12-07T03:29:24;-5.10;99.90
12384;DHT22;6256;63.808;20.336;2023-12-07T03:31:49;-5.10;99.90
12384;DHT22;6256;63.808;20.336;2023-12-07T03:34:15;-5.00;99.90
12384;DHT22;6256;63.808;20.336;2023-12-07T03:36:44;-5.00;99.90
12384;DHT22;6256;63.808;20.336;2023-12-07T03:39:10;-5.00;99.90
12384;DHT22;6256;63.808;20.336;2023-12-07T03:41:36;-5.10;99.90
12384;DHT22;6256;63.808;20.336;2023-12-07T03:44:01;-5.00;99.90
12384;DHT22;6256;63.808;20.336;2023-12-07T03:46:27;-5.00;99.90
12384;DHT22;6256;63.808;20.336;2023-12-07T03:48:53;-5.00;99.90
12384;DHT22;6256;63.808;20.336;2023-12-07T03:51:18;-5.00;99.90
12384;DHT22;6256;63.808;20.336;2023-12-07T03:53:44;-5.00;99.90
12384;DHT22;6256;63.808;20.336;2023-12-07T03:56:10;-5.00;99.90
12384;DHT22;6256;63.808;20.336;2023-12-07T03:58:36;-5.00;99.90
12384;DHT22;6256;63.808;20.336;2023-12-07T04:01:02;-5.00;99.90
12384;DHT22;6256;63.808;20.336;2023-12-07T04:03:27;-5.00;99.90
12384;DHT22;6256;63.808;20.336;2023-12-07T04:05:53;-5.00;99.90
12384;DHT22;6256;63.808;20.336;2023-12-07T04:08:18;-5.00;99.90
12384;DHT22;6256;63.808;20.336;2023-12-07T04:10:45;-4.90;99.90
12384;DHT22;6256;63.808;20.336;2023-12-07T04:13:11;-4.90;99.90
12384;DHT22;6256;63.808;20.336;2023-12-07T04:15:36;-4.90;99.90
12384;DHT22;6256;63.808;20.336;2023-12-07T04:18:02;-4.90;99.90
12384;DHT22;6256;63.808;20.336;2023-12-07T04:20:28;-4.80;99.90
12384;DHT22;6256;63.808;20.336;2023-12-07T04:22:54;-4.90;99.90
12384;DHT22;6256;63.808;20.336;2023-12-07T04:25:19;-4.80;99.90
12384;DHT22;6256;63.808;20.336;2023-12-07T04:27:45;-4.80;99.90
12384;DHT22;6256;63.808;20.336;2023-12-07T04:30:11;-4.70;99.90
12384;DHT22;6256;63.808;20.336;2023-12-07T04:32:38;-4.70;99.90
12384;DHT22;6256;63.808;20.336;2023-12-07T04:35:04;-4.70;99.90
12384;DHT22;6256;63.808;20.336;2023-12-07T04:37:32;-4.70;99.90
12384;DHT22;6256;63.808;20.336;2023-12-07T04:39:57;-4.70;99.90
12384;DHT22;6256;63.808;20.336;2023-12-07T04:42:24;-4.70;99.90
12384;DHT22;6256;63.808;20.336;2023-12-07T04:44:49;-4.70;99.90
12384;DHT22;6256;63.808;20.336;2023-12-07T04:47:15;-4.70;99.90
12384;DHT22;6256;63.808;20.336;2023-12-07T04:49:40;-4.60;99.90
12384;DHT22;6256;63.808;20.336;2023-12-07T04:52:06;-4.60;99.90
12384;DHT22;6256;63.808;20.336;2023-12-07T04:54:32;-4.60;99.90
12384;DHT22;6256;63.808;20.336;2023-12-07T04:56:58;-4.60;99.90
12384;DHT22;6256;63.808;20.336;2023-12-07T04:59:24;-4.60;99.90
12384;DHT22;6256;63.808;20.336;2023-12-07T05:01:49;-4.50;99.90
12384;DHT22;6256;63.808;20.336;2023-12-07T05:04:16;-4.50;99.90
12384;DHT22;6256;63.808;20.336;2023-12-07T05:06:41;-4.40;99.90
12384;DHT22;6256;63.808;20.336;2023-12-07T05:09:10;-4.50;99.90
12384;DHT22;6256;63.808;20.336;2023-12-07T05:11:36;-4.50;99.90
12384;DHT22;6256;63.808;20.336;2023-12-07T05:14:03;-4.50;99.90
12384;DHT22;6256;63.808;20.336;2023-12-07T05:16:29;-4.40;99.90
12384;DHT22;6256;63.808;20.336;2023-12-07T05:18:54;-4.40;99.90
12384;DHT22;6256;63.808;20.336;2023-12-07T05:21:21;-4.40;99.90
12384;DHT22;6256;63.808;20.336;2023-12-07T05:23:46;-4.40;99.90
12384;DHT22;6256;63.808;20.336;2023-12-07T05:26:12;-4.50;99.90
12384;DHT22;6256;63.808;20.336;2023-12-07T05:28:38;-4.40;99.90
12384;DHT22;6256;63.808;20.336;2023-12-07T05:31:04;-4.40;99.90
12384;DHT22;6256;63.808;20.336;2023-12-07T05:33:29;-4.40;99.90
12384;DHT22;6256;63.808;20.336;2023-12-07T05:35:55;-4.50;99.90
12384;DHT22;6256;63.808;20.336;2023-12-07T05:38:21;-4.40;99.90
12384;DHT22;6256;63.808;20.336;2023-12-07T05:40:46;-4.40;99.90
12384;DHT22;6256;63.808;20.336;2023-12-07T05:43:12;-4.40;99.90
12384;DHT22;6256;63.808;20.336;2023-12-07T05:45:41;-4.40;99.90
12384;DHT22;6256;63.808;20.336;2023-12-07T05:48:06;-4.40;99.90
12384;DHT22;6256;63.808;20.336;2023-12-07T05:50:32;-4.30;99.90
12384;DHT22;6256;63.808;20.336;2023-12-07T05:52:58;-4.40;99.90
12384;DHT22;6256;63.808;20.336;2023-12-07T05:55:25;-4.30;99.90
12384;DHT22;6256;63.808;20.336;2023-12-07T05:57:50;-4.30;99.90
12384;DHT22;6256;63.808;20.336;2023-12-07T06:00:17;-4.30;99.90
12384;DHT22;6256;63.808;20.336;2023-12-07T06:02:44;-4.30;99.90
12384;DHT22;6256;63.808;20.336;2023-12-07T06:05:10;-4.30;99.90
12384;DHT22;6256;63.808;20.336;2023-12-07T06:07:36;-4.30;99.90
12384;DHT22;6256;63.808;20.336;2023-12-07T06:10:02;-4.30;99.90
12384;DHT22;6256;63.808;20.336;2023-12-07T06:12:27;-4.30;99.90
12384;DHT22;6256;63.808;20.336;2023-12-07T06:14:53;-4.30;99.90
12384;DHT22;6256;63.808;20.336;2023-12-07T06:17:20;-4.30;99.90
12384;DHT22;6256;63.808;20.336;2023-12-07T06:19:46;-4.30;99.90
12384;DHT22;6256;63.808;20.336;2023-12-07T06:22:12;-4.30;99.90
12384;DHT22;6256;63.808;20.336;2023-12-07T06:24:39;-4.20;99.90
12384;DHT22;6256;63.808;20.336;2023-12-07T06:27:05;-4.20;99.90
12384;DHT22;6256;63.808;20.336;2023-12-07T06:29:30;-4.20;99.90
12384;DHT22;6256;63.808;20.336;2023-12-07T06:31:56;-4.20;99.90
12384;DHT22;6256;63.808;20.336;2023-12-07T06:34:22;-4.10;99.90
12384;DHT22;6256;63.808;20.336;2023-12-07T06:36:48;-4.10;99.90
12384;DHT22;6256;63.808;20.336;2023-12-07T06:39:14;-4.10;99.90
12384;DHT22;6256;63.808;20.336;2023-12-07T06:41:42;-4.10;99.90
12384;DHT22;6256;63.808;20.336;2023-12-07T06:44:08;-4.10;99.90
12384;DHT22;6256;63.808;20.336;2023-12-07T06:46:33;-4.00;99.90
12384;DHT22;6256;63.808;20.336;2023-12-07T06:48:59;-4.10;99.90
12384;DHT22;6256;63.808;20.336;2023-12-07T06:51:25;-4.10;99.90
12384;DHT22;6256;63.808;20.336;2023-12-07T06:53:52;-4.00;99.90
12384;DHT22;6256;63.808;20.336;2023-12-07T06:56:17;-4.00;99.90
12384;DHT22;6256;63.808;20.336;2023-12-07T06:58:43;-4.00;99.90
12384;DHT22;6256;63.808;20.336;2023-12-07T07:01:09;-4.00;99.90
12384;DHT22;6256;63.808;20.336;2023-12-07T07:03:34;-4.00;99.90
12384;DHT22;6256;63.808;20.336;2023-12-07T07:06:00;-4.00;99.90
12384;DHT22;6256;63.808;20.336;2023-12-07T07:08:26;-4.00;99.90
12384;DHT22;6256;63.808;20.336;2023-12-07T07:10:52;-4.00;99.90
12384;DHT22;6256;63.808;20.336;2023-12-07T07:13:18;-3.90;99.90
12384;DHT22;6256;63.808;20.336;2023-12-07T07:15:46;-4.00;99.90
12384;DHT22;6256;63.808;20.336;2023-12-07T07:18:16;-3.90;99.90
12384;DHT22;6256;63.808;20.336;2023-12-07T07:20:42;-3.80;99.90
12384;DHT22;6256;63.808;20.336;2023-12-07T07:23:08;-3.90;99.90
12384;DHT22;6256;63.808;20.336;2023-12-07T07:25:34;-3.80;99.90
12384;DHT22;6256;63.808;20.336;2023-12-07T07:28:00;-3.80;99.90
12384;DHT22;6256;63.808;20.336;2023-12-07T07:30:25;-3.80;99.90
12384;DHT22;6256;63.808;20.336;2023-12-07T07:32:51;-3.80;99.90
12384;DHT22;6256;63.808;20.336;2023-12-07T07:35:17;-3.80;99.90
12384;DHT22;6256;63.808;20.336;2023-12-07T07:37:43;-3.70;99.90
12384;DHT22;6256;63.808;20.336;2023-12-07T07:40:09;-3.70;99.90
12384;DHT22;6256;63.808;20.336;2023-12-07T07:42:38;-3.70;99.90
12384;DHT22;6256;63.808;20.336;2023-12-07T07:45:06;-3.60;99.90
12384;DHT22;6256;63.808;20.336;2023-12-07T07:47:32;-3.70;99.90
12384;DHT22;6256;63.808;20.336;2023-12-07T07:49:58;-3.60;99.90
12384;DHT22;6256;63.808;20.336;2023-12-07T07:52:24;-3.60;99.90
12384;DHT22;6256;63.808;20.336;2023-12-07T07:54:49;-3.60;99.90
12384;DHT22;6256;63.808;20.336;2023-12-07T07:57:15;-3.60;99.90
12384;DHT22;6256;63.808;20.336;2023-12-07T07:59:41;-3.50;99.90
12384;DHT22;6256;63.808;20.336;2023-12-07T08:02:07;-3.50;99.90
12384;DHT22;6256;63.808;20.336;2023-12-07T08:04:33;-3.50;99.90
12384;DHT22;6256;63.808;20.336;2023-12-07T08:06:59;-3.50;99.90
12384;DHT22;6256;63.808;20.336;2023-12-07T08:09:26;-3.40;99.90
12384;DHT22;6256;63.808;20.336;2023-12-07T08:11:52;-3.40;99.90
12384;DHT22;6256;63.808;20.336;2023-12-07T08:14:18;-3.40;99.90
12384;DHT22;6256;63.808;20.336;2023-12-07T08:16:46;-3.40;99.90
12384;DHT22;6256;63.808;20.336;2023-12-07T08:19:12;-3.40;99.90
12384;DHT22;6256;63.808;20.336;2023-12-07T08:21:41;-3.30;99.90
12384;DHT22;6256;63.808;20.336;2023-12-07T08:24:07;-3.30;99.90
12384;DHT22;6256;63.808;20.336;2023-12-07T08:26:36;-3.30;99.90
12384;DHT22;6256;63.808;20.336;2023-12-07T08:29:02;-3.20;99.90
12384;DHT22;6256;63.808;20.336;2023-12-07T08:31:28;-3.20;99.90
12384;DHT22;6256;63.808;20.336;2023-12-07T08:33:53;-3.20;99.90
12384;DHT22;6256;63.808;20.336;2023-12-07T08:36:19;-3.20;99.90
12384;DHT22;6256;63.808;20.336;2023-12-07T08:38:45;-3.10;99.90
12384;DHT22;6256;63.808;20.336;2023-12-07T08:41:10;-3.10;99.90
12384;DHT22;6256;63.808;20.336;2023-12-07T08:43:36;-3.10;99.90
12384;DHT22;6256;63.808;20.336;2023-12-07T08:46:02;-3.10;99.90
12384;DHT22;6256;63.808;20.336;2023-12-07T08:48:29;-3.00;99.90
12384;DHT22;6256;63.808;20.336;2023-12-07T08:50:54;-2.90;99.90
12384;DHT22;6256;63.808;20.336;2023-12-07T08:53:20;-2.80;99.90
12384;DHT22;6256;63.808;20.336;2023-12-07T08:55:46;-2.80;99.90
12384;DHT22;6256;63.808;20.336;2023-12-07T08:58:11;-2.80;99.90
12384;DHT22;6256;63.808;20.336;2023-12-07T09:00:38;-2.70;99.90
12384;DHT22;6256;63.808;20.336;2023-12-07T09:03:04;-2.70;99.90
12384;DHT22;6256;63.808;20.336;2023-12-07T09:05:29;-2.70;99.90
12384;DHT22;6256;63.808;20.336;2023-12-07T09:07:56;-2.60;99.90
12384;DHT22;6256;63.808;20.336;2023-12-07T09:10:22;-2.60;99.90
12384;DHT22;6256;63.808;20.336;2023-12-07T09:12:48;-2.50;99.90
12384;DHT22;6256;63.808;20.336;2023-12-07T09:15:13;-2.50;99.90
12384;DHT22;6256;63.808;20.336;2023-12-07T09:17:39;-2.40;99.90
12384;DHT22;6256;63.808;20.336;2023-12-07T09:20:07;-2.40;99.90
12384;DHT22;6256;63.808;20.336;2023-12-07T09:22:42;-2.40;99.90
12384;DHT22;6256;63.808;20.336;2023-12-07T09:25:08;-2.40;99.90
12384;DHT22;6256;63.808;20.336;2023-12-07T09:27:34;-2.30;99.90
12384;DHT22;6256;63.808;20.336;2023-12-07T09:30:06;-2.30;99.90
12384;DHT22;6256;63.808;20.336;2023-12-07T09:32:42;-2.20;99.90
12384;DHT22;6256;63.808;20.336;2023-12-07T09:35:09;-2.20;99.90
12384;DHT22;6256;63.808;20.336;2023-12-07T09:37:44;-2.20;99.90
12384;DHT22;6256;63.808;20.336;2023-12-07T09:40:21;-2.10;99.90
12384;DHT22;6256;63.808;20.336;2023-12-07T09:42:47;-2.10;99.90
12384;DHT22;6256;63.808;20.336;2023-12-07T09:45:14;-2.10;99.90
12384;DHT22;6256;63.808;20.336;2023-12-07T09:47:42;-2.10;99.90
12384;DHT22;6256;63.808;20.336;2023-12-07T09:50:09;-2.10;99.90
12384;DHT22;6256;63.808;20.336;2023-12-07T09:52:35;-2.00;99.90
12384;DHT22;6256;63.808;20.336;2023-12-07T09:55:05;-2.00;99.90
12384;DHT22;6256;63.808;20.336;2023-12-07T09:57:31;-1.90;99.90
12384;DHT22;6256;63.808;20.336;2023-12-07T09:59:58;-1.90;99.90
12384;DHT22;6256;63.808;20.336;2023-12-07T10:02:24;-1.90;99.90
12384;DHT22;6256;63.808;20.336;2023-12-07T10:05:07;-1.90;99.90
12384;DHT22;6256;63.808;20.336;2023-12-07T10:07:34;-1.90;99.90
12384;DHT22;6256;63.808;20.336;2023-12-07T10:10:02;-1.80;99.90
12384;DHT22;6256;63.808;20.336;2023-12-07T10:12:29;-1.80;99.90
12384;DHT22;6256;63.808;20.336;2023-12-07T10:14:55;-1.80;99.90
12384;DHT22;6256;63.808;20.336;2023-12-07T10:17:20;-1.70;99.90
12384;DHT22;6256;63.808;20.336;2023-12-07T10:19:46;-1.80;99.90
12384;DHT22;6256;63.808;20.336;2023-12-07T10:22:15;-1.80;99.90
12384;DHT22;6256;63.808;20.336;2023-12-07T10:24:41;-1.80;99.90
12384;DHT22;6256;63.808;20.336;2023-12-07T10:27:08;-1.80;99.90
12384;DHT22;6256;63.808;20.336;2023-12-07T10:29:38;-1.70;99.90
12384;DHT22;6256;63.808;20.336;2023-12-07T10:32:04;-1.70;99.90
12384;DHT22;6256;63.808;20.336;2023-12-07T10:34:31;-1.70;99.90
12384;DHT22;6256;63.808;20.336;2023-12-07T10:36:59;-1.70;99.90
12384;DHT22;6256;63.808;20.336;2023-12-07T10:39:25;-1.70;99.90
12384;DHT22;6256;63.808;20.336;2023-12-07T10:41:56;-1.70;99.90
12384;DHT22;6256;63.808;20.336;2023-12-07T10:44:26;-1.60;99.90
12384;DHT22;6256;63.808;20.336;2023-12-07T10:46:54;-1.60;99.90
12384;DHT22;6256;63.808;20.336;2023-12-07T10:49:22;-1.60;99.90
12384;DHT22;6256;63.808;20.336;2023-12-07T10:52:00;-1.60;99.90
12384;DHT22;6256;63.808;20.336;2023-12-07T10:57:24;-1.50;99.90
12384;DHT22;6256;63.808;20.336;2023-12-07T10:59:50;-1.50;99.90
12384;DHT22;6256;63.808;20.336;2023-12-07T11:02:18;-1.40;99.90
12384;DHT22;6256;63.808;20.336;2023-12-07T11:04:46;-1.40;99.90
12384;DHT22;6256;63.808;20.336;2023-12-07T11:07:17;-1.40;99.90
12384;DHT22;6256;63.808;20.336;2023-12-07T11:09:51;-1.40;99.90
12384;DHT22;6256;63.808;20.336;2023-12-07T11:12:24;-1.40;99.90
12384;DHT22;6256;63.808;20.336;2023-12-07T11:14:53;-1.40;99.90
12384;DHT22;6256;63.808;20.336;2023-12-07T11:17:21;-1.40;99.90
12384;DHT22;6256;63.808;20.336;2023-12-07T11:19:47;-1.40;99.90
12384;DHT22;6256;63.808;20.336;2023-12-07T11:22:13;-1.40;99.90
12384;DHT22;6256;63.808;20.336;2023-12-07T11:24:58;-1.40;99.90
12384;DHT22;6256;63.808;20.336;2023-12-07T11:27:29;-1.50;99.90
12384;DHT22;6256;63.808;20.336;2023-12-07T11:29:58;-1.60;99.90
12384;DHT22;6256;63.808;20.336;2023-12-07T11:32:26;-1.60;99.90
12384;DHT22;6256;63.808;20.336;2023-12-07T11:34:53;-1.60;99.90
12384;DHT22;6256;63.808;20.336;2023-12-07T11:37:19;-1.60;99.90
12384;DHT22;6256;63.808;20.336;2023-12-07T11:39:45;-1.60;99.90
12384;DHT22;6256;63.808;20.336;2023-12-07T11:42:14;-1.60;99.90
12384;DHT22;6256;63.808;20.336;2023-12-07T11:44:41;-1.60;99.90
12384;DHT22;6256;63.808;20.336;2023-12-07T11:47:08;-1.60;99.90
12384;DHT22;6256;63.808;20.336;2023-12-07T11:49:34;-1.60;99.90
12384;DHT22;6256;63.808;20.336;2023-12-07T11:52:01;-1.60;99.90
12384;DHT22;6256;63.808;20.336;2023-12-07T11:54:37;-1.60;99.90
12384;DHT22;6256;63.808;20.336;2023-12-07T11:57:06;-1.60;99.90
12384;DHT22;6256;63.808;20.336;2023-12-07T11:59:32;-1.60;99.90
12384;DHT22;6256;63.808;20.336;2023-12-07T12:02:01;-1.50;99.90
12384;DHT22;6256;63.808;20.336;2023-12-07T12:04:30;-1.60;99.90
12384;DHT22;6256;63.808;20.336;2023-12-07T12:06:56;-1.50;99.90
12384;DHT22;6256;63.808;20.336;2023-12-07T12:09:24;-1.50;99.90
12384;DHT22;6256;63.808;20.336;2023-12-07T12:11:50;-1.60;99.90
12384;DHT22;6256;63.808;20.336;2023-12-07T12:14:16;-1.60;99.90
12384;DHT22;6256;63.808;20.336;2023-12-07T12:16:43;-1.60;99.90
12384;DHT22;6256;63.808;20.336;2023-12-07T12:19:09;-1.50;99.90
12384;DHT22;6256;63.808;20.336;2023-12-07T12:21:38;-1.60;99.90
12384;DHT22;6256;63.808;20.336;2023-12-07T12:24:11;-1.50;99.90
12384;DHT22;6256;63.808;20.336;2023-12-07T12:26:40;-1.60;99.90
12384;DHT22;6256;63.808;20.336;2023-12-07T12:29:07;-1.60;99.90
12384;DHT22;6256;63.808;20.336;2023-12-07T12:31:40;-1.60;99.90
12384;DHT22;6256;63.808;20.336;2023-12-07T12:34:06;-1.60;99.90
12384;DHT22;6256;63.808;20.336;2023-12-07T12:36:40;-1.60;99.90
12384;DHT22;6256;63.808;20.336;2023-12-07T12:39:06;-1.60;99.90
12384;DHT22;6256;63.808;20.336;2023-12-07T12:41:34;-1.60;99.90
12384;DHT22;6256;63.808;20.336;2023-12-07T12:43:59;-1.60;99.90
12384;DHT22;6256;63.808;20.336;2023-12-07T12:46:25;-1.60;99.90
12384;DHT22;6256;63.808;20.336;2023-12-07T12:48:54;-1.70;99.90
12384;DHT22;6256;63.808;20.336;2023-12-07T12:51:24;-1.70;99.90
12384;DHT22;6256;63.808;20.336;2023-12-07T12:53:51;-1.70;99.90
12384;DHT22;6256;63.808;20.336;2023-12-07T12:56:18;-1.70;99.90
12384;DHT22;6256;63.808;20.336;2023-12-07T12:58:44;-1.70;99.90
12384;DHT22;6256;63.808;20.336;2023-12-07T13:01:10;-1.70;99.90
12384;DHT22;6256;63.808;20.336;2023-12-07T13:03:36;-1.70;99.90
12384;DHT22;6256;63.808;20.336;2023-12-07T13:06:01;-1.70;99.90
12384;DHT22;6256;63.808;20.336;2023-12-07T13:08:27;-1.70;99.90
12384;DHT22;6256;63.808;20.336;2023-12-07T13:10:53;-1.70;99.90
12384;DHT22;6256;63.808;20.336;2023-12-07T13:13:18;-1.70;99.90
12384;DHT22;6256;63.808;20.336;2023-12-07T13:15:44;-1.70;99.90
12384;DHT22;6256;63.808;20.336;2023-12-07T13:18:10;-1.70;99.90
12384;DHT22;6256;63.808;20.336;2023-12-07T13:20:36;-1.80;99.90
12384;DHT22;6256;63.808;20.336;2023-12-07T13:23:01;-1.80;99.90
12384;DHT22;6256;63.808;20.336;2023-12-07T13:25:27;-1.70;99.90
12384;DHT22;6256;63.808;20.336;2023-12-07T13:27:53;-1.70;99.90
12384;DHT22;6256;63.808;20.336;2023-12-07T13:30:19;-1.70;99.90
12384;DHT22;6256;63.808;20.336;2023-12-07T13:32:45;-1.70;99.90
12384;DHT22;6256;63.808;20.336;2023-12-07T13:35:11;-1.70;99.90
12384;DHT22;6256;63.808;20.336;2023-12-07T13:37:38;-1.80;99.90
12384;DHT22;6256;63.808;20.336;2023-12-07T13:40:05;-1.70;99.90
12384;DHT22;6256;63.808;20.336;2023-12-07T13:42:35;-1.80;99.90
12384;DHT22;6256;63.808;20.336;2023-12-07T13:45:01;-1.70;99.90
12384;DHT22;6256;63.808;20.336;2023-12-07T13:47:28;-1.70;99.90
12384;DHT22;6256;63.808;20.336;2023-12-07T13:49:57;-1.80;99.90
12384;DHT22;6256;63.808;20.336;2023-12-07T13:52:24;-1.80;99.90
12384;DHT22;6256;63.808;20.336;2023-12-07T13:54:50;-1.80;99.90
12384;DHT22;6256;63.808;20.336;2023-12-07T13:57:15;-1.80;99.90
12384;DHT22;6256;63.808;20.336;2023-12-07T13:59:41;-1.80;99.90
12384;DHT22;6256;63.808;20.336;2023-12-07T14:02:07;-1.80;99.90
12384;DHT22;6256;63.808;20.336;2023-12-07T14:04:36;-1.80;99.90
12384;DHT22;6256;63.808;20.336;2023-12-07T14:07:16;-1.80;99.90
12384;DHT22;6256;63.808;20.336;2023-12-07T14:09:44;-1.80;99.90
12384;DHT22;6256;63.808;20.336;2023-12-07T14:12:10;-1.70;99.90
12384;DHT22;6256;63.808;20.336;2023-12-07T14:14:45;-1.70;99.90
12384;DHT22;6256;63.808;20.336;2023-12-07T14:17:15;-1.70;99.90
12384;DHT22;6256;63.808;20.336;2023-12-07T14:19:41;-1.70;99.90
12384;DHT22;6256;63.808;20.336;2023-12-07T14:22:15;-1.70;99.90
12384;DHT22;6256;63.808;20.336;2023-12-07T14:24:41;-1.80;99.90
12384;DHT22;6256;63.808;20.336;2023-12-07T14:27:07;-1.80;99.90
12384;DHT22;6256;63.808;20.336;2023-12-07T14:29:35;-1.80;99.90
12384;DHT22;6256;63.808;20.336;2023-12-07T14:32:01;-1.80;99.90
12384;DHT22;6256;63.808;20.336;2023-12-07T14:34:27;-1.80;99.90
12384;DHT22;6256;63.808;20.336;2023-12-07T14:36:53;-1.80;99.90
12384;DHT22;6256;63.808;20.336;2023-12-07T14:39:19;-1.70;99.90
12384;DHT22;6256;63.808;20.336;2023-12-07T14:41:49;-1.80;99.90
12384;DHT22;6256;63.808;20.336;2023-12-07T14:44:16;-1.80;99.90
12384;DHT22;6256;63.808;20.336;2023-12-07T14:46:43;-1.80;99.90
12384;DHT22;6256;63.808;20.336;2023-12-07T14:49:11;-1.80;99.90
12384;DHT22;6256;63.808;20.336;2023-12-07T14:51:37;-1.80;99.90
12384;DHT22;6256;63.808;20.336;2023-12-07T14:54:02;-1.80;99.90
12384;DHT22;6256;63.808;20.336;2023-12-07T14:56:28;-1.80;99.90
12384;DHT22;6256;63.808;20.336;2023-12-07T14:58:53;-1.80;99.90
12384;DHT22;6256;63.808;20.336;2023-12-07T15:01:19;-1.80;99.90
12384;DHT22;6256;63.808;20.336;2023-12-07T15:03:45;-1.90;99.90
12384;DHT22;6256;63.808;20.336;2023-12-07T15:06:11;-1.80;99.90
12384;DHT22;6256;63.808;20.336;2023-12-07T15:08:36;-1.90;99.90
12384;DHT22;6256;63.808;20.336;2023-12-07T15:11:02;-1.90;99.90
12384;DHT22;6256;63.808;20.336;2023-12-07T15:13:29;-1.90;99.90
12384;DHT22;6256;63.808;20.336;2023-12-07T15:15:55;-1.90;99.90
12384;DHT22;6256;63.808;20.336;2023-12-07T15:18:20;-1.90;99.90
12384;DHT22;6256;63.808;20.336;2023-12-07T15:20:46;-1.90;99.90
12384;DHT22;6256;63.808;20.336;2023-12-07T15:23:12;-1.90;99.90
12384;DHT22;6256;63.808;20.336;2023-12-07T15:25:41;-1.90;99.90
12384;DHT22;6256;63.808;20.336;2023-12-07T15:28:06;-1.90;99.90
12384;DHT22;6256;63.808;20.336;2023-12-07T15:30:36;-1.90;99.90
12384;DHT22;6256;63.808;20.336;2023-12-07T15:33:01;-1.90;99.90
12384;DHT22;6256;63.808;20.336;2023-12-07T15:35:29;-1.90;99.90